Dinsmore, Canada
Current Conditions -  °F | °C
As of 9:00 PM on Monday 22 Dec 2014 (Local Time) from CYXE Reporting Station
Light Snow Light Snow  
Wind Chill: 21°   Ceiling: 1000
Heat Index: 21°   Visibility: 12mi
Dew Point: 19°   Wind: 3mph
Humidity: 93%   Direction: 300°WNW
Pressure: 30"   Gusts: NA
Location:  51.33°N, 107.45°W
Report Text: CYXE 230300Z 30003KT 12SM -SN OVC010 M06/M07 A3000 RMK SC8 SLP193
Loading
Personal Weather Stations






























Interactive Weather Map New forecast layout! Learn more

10-Day Weather Forecast

Advertisements
Track Severe Weather on mobile